createdAt,value
2017-05-14T00:00:15.745Z,0
2017-05-14T00:01:15.661Z,0
2017-05-14T00:02:10.620Z,0
2017-05-14T00:03:10.159Z,0
2017-05-14T00:04:10.141Z,0
2017-05-14T00:05:10.105Z,0
2017-05-14T00:06:11.581Z,0
2017-05-14T00:07:10.534Z,0
2017-05-14T00:08:05.504Z,0
2017-05-14T00:09:05.040Z,0
2017-05-14T00:09:58.967Z,0
2017-05-14T00:10:54.460Z,0
2017-05-14T00:11:53.614Z,0
2017-05-14T00:12:53.447Z,0
2017-05-14T00:13:47.380Z,0
2017-05-14T00:14:42.355Z,0
2017-05-14T00:15:41.838Z,0
2017-05-14T00:16:36.805Z,0
2017-05-14T00:17:36.681Z,0
2017-05-14T00:18:30.242Z,0
2017-05-14T00:19:24.340Z,0
2017-05-14T00:20:24.201Z,0
2017-05-14T00:21:07.166Z,0
2017-05-14T00:21:54.683Z,0
2017-05-14T00:22:43.674Z,0
2017-05-14T00:23:31.193Z,0
2017-05-14T00:24:19.144Z,0
2017-05-14T00:25:02.412Z,0
2017-05-14T00:25:49.664Z,0
2017-05-14T00:26:32.607Z,0
2017-05-14T00:27:21.101Z,0
2017-05-14T00:28:08.720Z,0
2017-05-14T00:28:51.692Z,0
2017-05-14T00:29:39.122Z,0
2017-05-14T00:30:22.126Z,0
2017-05-14T00:31:09.593Z,0
2017-05-14T00:31:58.583Z,0
2017-05-14T00:32:46.165Z,0
2017-05-14T00:33:29.116Z,0
2017-05-14T00:34:16.693Z,0
2017-05-14T00:35:04.592Z,0
2017-05-14T00:35:52.952Z,0
2017-05-14T00:36:41.512Z,0
2017-05-14T00:37:29.018Z,0
2017-05-14T00:38:12.320Z,0
2017-05-14T00:38:59.536Z,0
2017-05-14T00:39:42.834Z,0
2017-05-14T00:40:30.045Z,0
2017-05-14T00:41:17.986Z,0
2017-05-14T00:42:05.991Z,0
2017-05-14T00:42:48.955Z,0
2017-05-14T00:43:36.471Z,0
2017-05-14T00:44:19.636Z,0
2017-05-14T00:45:07.000Z,0
2017-05-14T00:45:56.080Z,0
2017-05-14T00:46:43.977Z,0
2017-05-14T00:47:31.417Z,0
2017-05-14T00:48:19.381Z,0
2017-05-14T00:49:02.332Z,0
2017-05-14T00:49:49.923Z,0
2017-05-14T00:50:33.145Z,0
2017-05-14T00:51:20.351Z,0
2017-05-14T00:52:09.347Z,0
2017-05-14T00:52:57.394Z,0
2017-05-14T00:53:44.877Z,0
2017-05-14T00:54:32.754Z,0
2017-05-14T00:55:15.765Z,0
2017-05-14T00:56:03.263Z,0
2017-05-14T00:56:46.242Z,0
2017-05-14T00:57:33.728Z,0
2017-05-14T00:58:22.706Z,0
2017-05-14T00:59:17.226Z,0
2017-05-14T01:00:11.750Z,0
2017-05-14T01:01:06.336Z,0
2017-05-14T01:02:05.876Z,0
2017-05-14T01:02:59.766Z,0
2017-05-14T01:03:59.753Z,0
2017-05-14T01:04:55.251Z,0
2017-05-14T01:05:54.739Z,0
2017-05-14T01:06:49.183Z,0
2017-05-14T01:07:43.717Z,0
2017-05-14T01:08:43.238Z,0
2017-05-14T01:09:43.176Z,0
2017-05-14T01:10:37.106Z,0
2017-05-14T01:11:37.023Z,0
2017-05-14T01:12:31.029Z,0
2017-05-14T01:13:30.964Z,0
2017-05-14T01:14:30.932Z,0
2017-05-14T01:15:24.949Z,0
2017-05-14T01:16:24.846Z,0
2017-05-14T01:17:13.827Z,0
2017-05-14T01:18:08.449Z,0
2017-05-14T01:19:07.851Z,0
2017-05-14T01:20:07.795Z,0
2017-05-14T01:21:01.726Z,0
2017-05-14T01:21:55.747Z,0
2017-05-14T01:22:55.670Z,0
2017-05-14T01:23:55.657Z,0
2017-05-14T01:24:56.091Z,0
2017-05-14T01:25:49.541Z,0
2017-05-14T01:26:44.516Z,0
2017-05-14T01:27:44.015Z,0
2017-05-14T01:28:32.941Z,0
2017-05-14T01:29:38.439Z,0
2017-05-14T01:30:33.566Z,0
2017-05-14T01:31:27.961Z,0
2017-05-14T01:32:22.457Z,0
2017-05-14T01:33:22.011Z,0
2017-05-14T01:34:16.972Z,0
2017-05-14T01:35:17.330Z,0
2017-05-14T01:36:16.409Z,0
2017-05-14T01:37:11.360Z,0
2017-05-14T01:38:16.926Z,0
2017-05-14T01:39:10.824Z,0
2017-05-14T01:40:05.853Z,0
2017-05-14T01:41:05.339Z,0
2017-05-14T01:41:54.314Z,0
2017-05-14T01:42:53.821Z,0
2017-05-14T01:43:47.715Z,0
2017-05-14T01:44:42.726Z,0
2017-05-14T01:45:36.214Z,0
2017-05-14T01:46:36.227Z,0
2017-05-14T01:47:30.134Z,0
2017-05-14T01:48:30.153Z,0
2017-05-14T01:49:25.060Z,0
2017-05-14T01:50:19.884Z,0
2017-05-14T01:51:19.145Z,0
2017-05-14T01:52:13.100Z,0
2017-05-14T01:53:14.038Z,0
2017-05-14T01:54:13.567Z,0
2017-05-14T01:55:07.486Z,0
2017-05-14T01:56:07.429Z,0
2017-05-14T01:57:01.434Z,0
2017-05-14T01:57:55.382Z,0
2017-05-14T01:58:50.293Z,0
2017-05-14T01:59:49.877Z,0
2017-05-14T02:00:38.819Z,0
2017-05-14T02:01:44.351Z,0
2017-05-14T02:02:38.261Z,0
2017-05-14T02:03:33.201Z,0
2017-05-14T02:04:32.802Z,0
2017-05-14T02:05:21.708Z,0
2017-05-14T02:06:21.288Z,0
2017-05-14T02:07:15.159Z,0
2017-05-14T02:08:15.131Z,0
2017-05-14T02:09:10.118Z,0
2017-05-14T02:10:09.567Z,0
2017-05-14T02:11:09.562Z,0
2017-05-14T02:12:03.468Z,0
2017-05-14T02:13:03.480Z,0
2017-05-14T02:13:58.414Z,0
2017-05-14T02:14:57.955Z,0
2017-05-14T02:15:52.919Z,0
2017-05-14T02:16:52.661Z,0
2017-05-14T02:17:52.348Z,0
2017-05-14T02:18:46.345Z,0
2017-05-14T02:19:40.327Z,0
2017-05-14T02:20:34.257Z,0
2017-05-14T02:21:23.217Z,0
2017-05-14T02:22:17.736Z,0
2017-05-14T02:23:17.239Z,0
2017-05-14T02:24:17.175Z,0
2017-05-14T02:25:12.163Z,0
2017-05-14T02:26:11.709Z,0
2017-05-14T02:27:00.642Z,0
2017-05-14T02:28:00.194Z,0
2017-05-14T02:29:00.043Z,0
2017-05-14T02:29:55.041Z,0
2017-05-14T02:31:00.550Z,0
2017-05-14T02:31:54.532Z,0
2017-05-14T02:33:00.454Z,0
2017-05-14T02:34:00.431Z,0
2017-05-14T02:35:00.341Z,0
2017-05-14T02:36:00.309Z,0
2017-05-14T02:36:54.777Z,0
2017-05-14T02:37:43.244Z,0
2017-05-14T02:38:37.753Z,0
2017-05-14T02:39:37.319Z,0
2017-05-14T02:40:31.233Z,0
2017-05-14T02:41:25.166Z,0
2017-05-14T02:42:19.123Z,0
2017-05-14T02:43:14.107Z,0
2017-05-14T02:44:13.624Z,0
2017-05-14T02:45:02.529Z,0
2017-05-14T02:46:08.027Z,0
2017-05-14T02:47:03.036Z,0
2017-05-14T02:47:57.547Z,0
2017-05-14T02:48:52.560Z,0
2017-05-14T02:49:51.691Z,0
2017-05-14T02:50:46.571Z,0
2017-05-14T02:51:46.133Z,0
2017-05-14T02:52:46.012Z,0
2017-05-14T02:53:39.988Z,0
2017-05-14T02:54:39.904Z,4
2017-05-14T02:55:34.895Z,4
2017-05-14T02:56:34.360Z,4
2017-05-14T02:57:28.352Z,4
2017-05-14T02:58:29.268Z,0
2017-05-14T02:59:28.896Z,4
2017-05-14T03:00:28.751Z,4
2017-05-14T03:01:28.842Z,8
2017-05-14T03:02:22.645Z,4
2017-05-14T03:03:22.603Z,8
2017-05-14T03:04:17.560Z,8
2017-05-14T03:05:17.072Z,12
2017-05-14T03:06:12.074Z,12
2017-05-14T03:07:11.632Z,12
2017-05-14T03:08:11.495Z,12
2017-05-14T03:09:06.482Z,12
2017-05-14T03:10:05.997Z,16
2017-05-14T03:10:59.950Z,20
2017-05-14T03:11:54.891Z,24
2017-05-14T03:12:54.587Z,24
2017-05-14T03:13:54.387Z,28
2017-05-14T03:14:54.353Z,32
2017-05-14T03:15:49.228Z,36
2017-05-14T03:16:48.813Z,40
2017-05-14T03:17:42.765Z,48
2017-05-14T03:18:37.746Z,52
2017-05-14T03:19:37.217Z,60
2017-05-14T03:20:32.750Z,68
2017-05-14T03:21:37.668Z,72
2017-05-14T03:22:31.690Z,88
2017-05-14T03:23:31.606Z,96
2017-05-14T03:24:20.588Z,104
2017-05-14T03:25:15.036Z,116
2017-05-14T03:26:14.622Z,128
2017-05-14T03:27:14.493Z,144
2017-05-14T03:28:08.493Z,160
2017-05-14T03:29:02.449Z,176
2017-05-14T03:30:02.443Z,196
2017-05-14T03:30:56.353Z,216
2017-05-14T03:31:56.351Z,236
2017-05-14T03:32:56.251Z,256
2017-05-14T03:33:51.241Z,280
2017-05-14T03:34:56.722Z,308
2017-05-14T03:35:50.774Z,332
2017-05-14T03:36:45.664Z,356
2017-05-14T03:37:40.152Z,380
2017-05-14T03:38:34.691Z,408
2017-05-14T03:39:29.213Z,440
2017-05-14T03:40:29.747Z,472
2017-05-14T03:41:24.247Z,504
2017-05-14T03:42:18.734Z,540
2017-05-14T03:43:13.277Z,572
2017-05-14T03:44:12.812Z,616
2017-05-14T03:45:06.751Z,652
2017-05-14T03:46:06.696Z,700
2017-05-14T03:47:06.686Z,744
2017-05-14T03:48:07.582Z,788
2017-05-14T03:49:08.134Z,836
2017-05-14T03:50:02.662Z,884
2017-05-14T03:51:02.184Z,940
2017-05-14T03:52:03.061Z,1004
2017-05-14T03:52:56.770Z,1068
2017-05-14T03:53:56.621Z,1144
2017-05-14T03:54:50.524Z,1204
2017-05-14T03:55:51.487Z,1264
2017-05-14T03:56:51.532Z,1312
2017-05-14T03:57:44.971Z,1364
2017-05-14T03:58:38.973Z,1412
2017-05-14T03:59:32.876Z,1476
2017-05-14T04:00:21.830Z,1528
2017-05-14T04:01:16.346Z,1588
2017-05-14T04:02:15.864Z,1644
2017-05-14T04:03:09.845Z,1692
2017-05-14T04:04:03.739Z,1740
2017-05-14T04:04:57.723Z,1792
2017-05-14T04:05:57.653Z,1852
2017-05-14T04:06:51.686Z,1912
2017-05-14T04:07:51.663Z,1996
2017-05-14T04:08:46.522Z,2044
2017-05-14T04:09:41.106Z,2108
2017-05-14T04:10:40.537Z,2188
2017-05-14T04:11:40.581Z,2260
2017-05-14T04:12:34.464Z,2324
2017-05-14T04:13:34.452Z,2388
2017-05-14T04:14:29.374Z,2436
2017-05-14T04:15:28.907Z,2504
2017-05-14T04:16:23.844Z,2560
2017-05-14T04:17:23.355Z,2648
2017-05-14T04:18:24.340Z,2720
2017-05-14T04:19:18.840Z,2748
2017-05-14T04:20:13.320Z,2788
2017-05-14T04:21:08.111Z,2848
2017-05-14T04:22:08.409Z,2932
2017-05-14T04:23:02.929Z,3016
2017-05-14T04:23:57.444Z,3096
2017-05-14T04:24:52.320Z,3204
2017-05-14T04:25:51.446Z,3312
2017-05-14T04:26:46.555Z,3496
2017-05-14T04:27:45.937Z,3604
2017-05-14T04:28:45.911Z,3696
2017-05-14T04:29:40.810Z,3828
2017-05-14T04:30:40.351Z,3904
2017-05-14T04:31:29.332Z,4028
2017-05-14T04:32:28.806Z,4040
2017-05-14T04:33:22.799Z,4028
2017-05-14T04:34:16.767Z,4188
2017-05-14T04:35:10.738Z,4272
2017-05-14T04:36:06.154Z,4248
2017-05-14T04:37:05.183Z,4332
2017-05-14T04:37:59.161Z,4480
2017-05-14T04:38:53.059Z,4548
2017-05-14T04:39:48.063Z,4616
2017-05-14T04:40:47.548Z,4936
2017-05-14T04:41:41.519Z,5200
2017-05-14T04:42:41.524Z,5300
2017-05-14T04:43:35.491Z,5376
2017-05-14T04:44:41.379Z,5456
2017-05-14T04:45:36.375Z,5496
2017-05-14T04:46:35.843Z,5552
2017-05-14T04:47:35.856Z,5864
2017-05-14T04:48:29.758Z,5880
2017-05-14T04:49:17.756Z,5892
2017-05-14T04:50:05.713Z,5924
2017-05-14T04:50:53.648Z,6064
2017-05-14T04:51:54.642Z,6292
2017-05-14T04:52:43.120Z,6520
2017-05-14T04:53:37.659Z,6680
2017-05-14T04:54:31.238Z,6804
2017-05-14T04:55:20.152Z,6732
2017-05-14T04:56:14.677Z,6724
2017-05-14T04:57:14.199Z,6736
2017-05-14T04:58:08.111Z,6836
2017-05-14T04:59:08.138Z,6996
2017-05-14T05:00:08.197Z,7276
2017-05-14T05:01:02.035Z,7564
2017-05-14T05:01:51.018Z,7656
2017-05-14T05:02:45.478Z,7784
2017-05-14T05:03:45.040Z,7852
2017-05-14T05:04:44.976Z,7904
2017-05-14T05:05:38.924Z,7900
2017-05-14T05:06:32.908Z,7960
2017-05-14T05:07:32.835Z,8252
2017-05-14T05:08:27.827Z,8552
2017-05-14T05:09:27.346Z,8964
2017-05-14T05:10:28.316Z,9092
2017-05-14T05:11:27.867Z,9428
2017-05-14T05:12:21.779Z,9728
2017-05-14T05:13:21.764Z,10196
2017-05-14T05:14:15.748Z,10540
2017-05-14T05:15:09.640Z,10840
2017-05-14T05:16:04.631Z,10820
2017-05-14T05:17:10.205Z,10504
2017-05-14T05:18:05.085Z,10536
2017-05-14T05:19:04.703Z,10744
2017-05-14T05:20:05.571Z,11092
2017-05-14T05:20:59.136Z,11836
2017-05-14T05:21:54.099Z,12144
2017-05-14T05:22:54.637Z,11888
2017-05-14T05:23:49.144Z,10872
2017-05-14T05:24:43.665Z,9808
2017-05-14T05:25:38.136Z,10752
2017-05-14T05:26:37.808Z,11540
2017-05-14T05:27:32.609Z,12092
2017-05-14T05:28:32.197Z,12884
2017-05-14T05:29:32.144Z,12572
2017-05-14T05:30:27.254Z,11188
2017-05-14T05:31:26.721Z,10252
2017-05-14T05:32:20.572Z,9928
2017-05-14T05:33:21.895Z,9444
2017-05-14T05:34:16.375Z,9332
2017-05-14T05:35:10.647Z,10248
2017-05-14T05:36:05.142Z,10416
2017-05-14T05:37:04.699Z,8760
2017-05-14T05:37:58.653Z,6912
2017-05-14T05:38:58.643Z,6980
2017-05-14T05:39:53.580Z,8756
2017-05-14T05:40:53.125Z,9548
2017-05-14T05:41:47.105Z,10844
2017-05-14T05:42:47.446Z,12000
2017-05-14T05:43:40.954Z,11872
2017-05-14T05:44:47.183Z,11812
2017-05-14T05:45:41.132Z,11752
2017-05-14T05:46:40.915Z,11908
2017-05-14T05:47:34.857Z,11828
2017-05-14T05:48:29.812Z,11796
2017-05-14T05:49:30.513Z,11972
2017-05-14T05:50:24.842Z,11992
2017-05-14T05:51:19.842Z,12248
2017-05-14T05:52:18.927Z,12644
2017-05-14T05:53:19.153Z,12920
2017-05-14T05:54:13.846Z,13996
2017-05-14T05:55:13.326Z,15072
2017-05-14T05:56:08.885Z,15776
2017-05-14T05:57:08.099Z,15232
2017-05-14T05:58:07.929Z,15424
2017-05-14T05:59:02.824Z,13288
2017-05-14T06:00:08.337Z,14240
2017-05-14T06:01:03.773Z,16384
2017-05-14T06:02:03.058Z,19072
2017-05-14T06:03:03.824Z,25280
2017-05-14T06:03:57.331Z,23840
2017-05-14T06:04:45.293Z,22400
2017-05-14T06:05:34.829Z,22496
2017-05-14T06:06:23.154Z,23072
2017-05-14T06:07:10.601Z,24192
2017-05-14T06:07:58.709Z,25888
2017-05-14T06:08:52.321Z,27328
2017-05-14T06:09:41.622Z,28704
2017-05-14T06:10:41.191Z,28320
2017-05-14T06:11:35.143Z,27744
2017-05-14T06:12:22.911Z,26080
2017-05-14T06:13:10.912Z,25440
2017-05-14T06:14:11.015Z,25056
2017-05-14T06:15:06.071Z,26080
2017-05-14T06:16:05.323Z,27520
2017-05-14T06:16:59.453Z,30016
2017-05-14T06:17:53.524Z,32192
2017-05-14T06:18:41.402Z,33184
2017-05-14T06:19:35.055Z,34112
2017-05-14T06:20:24.463Z,33472
2017-05-14T06:21:17.961Z,32224
2017-05-14T06:22:11.864Z,32384
2017-05-14T06:23:11.901Z,32832
2017-05-14T06:24:06.726Z,34752
2017-05-14T06:25:06.243Z,35264
2017-05-14T06:26:00.362Z,35936
2017-05-14T06:26:48.409Z,36224
2017-05-14T06:27:42.306Z,35456
2017-05-14T06:28:25.337Z,34880
2017-05-14T06:29:12.890Z,32928
2017-05-14T06:30:13.055Z,30144
2017-05-14T06:31:07.713Z,29472
2017-05-14T06:32:02.311Z,28416
2017-05-14T06:32:56.899Z,28320
2017-05-14T06:33:45.415Z,29216
2017-05-14T06:34:38.987Z,29856
2017-05-14T06:35:33.898Z,30688
2017-05-14T06:36:27.424Z,29984
2017-05-14T06:37:21.354Z,30912
2017-05-14T06:38:10.428Z,31584
2017-05-14T06:38:58.908Z,31392
2017-05-14T06:39:47.367Z,32096
2017-05-14T06:40:41.330Z,31776
2017-05-14T06:41:34.605Z,32160
2017-05-14T06:42:22.585Z,32416
2017-05-14T06:43:23.000Z,36800
2017-05-14T06:44:10.912Z,37088
2017-05-14T06:44:53.489Z,31328
2017-05-14T06:45:46.994Z,27680
2017-05-14T06:46:41.956Z,30208
2017-05-14T06:47:42.561Z,39456
2017-05-14T06:48:42.258Z,45760
2017-05-14T06:49:36.260Z,40288
2017-05-14T06:50:25.075Z,40320
2017-05-14T06:51:12.633Z,37344
2017-05-14T06:52:01.535Z,35424
2017-05-14T06:52:56.114Z,32928
2017-05-14T06:53:44.584Z,38432
2017-05-14T06:54:32.295Z,36576
2017-05-14T06:55:26.496Z,34976
2017-05-14T06:56:26.479Z,43456
2017-05-14T06:57:20.073Z,37728
2017-05-14T06:58:21.168Z,32064
2017-05-14T06:59:14.966Z,37568
2017-05-14T07:00:04.013Z,54176
2017-05-14T07:01:03.056Z,37696
2017-05-14T07:01:57.015Z,44224
2017-05-14T07:02:57.008Z,48800
2017-05-14T07:03:51.012Z,57952
2017-05-14T07:04:45.123Z,51520
2017-05-14T07:05:34.181Z,56672
2017-05-14T07:06:28.433Z,46208
2017-05-14T07:07:22.033Z,57056
2017-05-14T07:08:11.115Z,75200
2017-05-14T07:09:05.526Z,66816
2017-05-14T07:09:59.073Z,62080
2017-05-14T07:10:47.187Z,41216
2017-05-14T07:11:35.301Z,53504
2017-05-14T07:12:29.021Z,44608
2017-05-14T07:13:28.974Z,47072
2017-05-14T07:14:23.159Z,44800
2017-05-14T07:15:22.955Z,46432
2017-05-14T07:16:18.098Z,46880
2017-05-14T07:17:12.896Z,46272
2017-05-14T07:18:07.336Z,42464
2017-05-14T07:18:55.042Z,39200
2017-05-14T07:19:49.483Z,37152
2017-05-14T07:20:38.596Z,37216
2017-05-14T07:21:27.023Z,38048
2017-05-14T07:22:15.603Z,36928
2017-05-14T07:23:14.969Z,36192
2017-05-14T07:24:02.934Z,38624
2017-05-14T07:24:50.787Z,40096
2017-05-14T07:25:40.099Z,36096
2017-05-14T07:26:28.589Z,38336
2017-05-14T07:27:23.135Z,41952
2017-05-14T07:28:17.901Z,43968
2017-05-14T07:29:10.557Z,39680
2017-05-14T07:29:58.511Z,40384
2017-05-14T07:30:46.331Z,36896
2017-05-14T07:31:41.501Z,37664
2017-05-14T07:32:40.665Z,40064
2017-05-14T07:33:35.107Z,43040
2017-05-14T07:34:23.585Z,41792
2017-05-14T07:35:17.125Z,43104
2017-05-14T07:36:06.320Z,44192
2017-05-14T07:37:00.633Z,45856
2017-05-14T07:37:48.701Z,43264
2017-05-14T07:38:43.794Z,40288
2017-05-14T07:39:32.140Z,41152
2017-05-14T07:40:19.639Z,42400
2017-05-14T07:41:19.635Z,40352
2017-05-14T07:42:13.613Z,41792
2017-05-14T07:42:56.478Z,42528
2017-05-14T07:43:51.476Z,43584
2017-05-14T07:44:44.619Z,47904
2017-05-14T07:45:38.811Z,57536
2017-05-14T07:46:33.576Z,58592
2017-05-14T07:47:33.161Z,55808
2017-05-14T07:48:27.182Z,61248
2017-05-14T07:49:10.473Z,53408
2017-05-14T07:50:03.700Z,53920
2017-05-14T07:50:57.673Z,58592
2017-05-14T07:51:45.646Z,55168
2017-05-14T07:52:34.670Z,76960
2017-05-14T07:53:28.150Z,69120
2017-05-14T07:54:17.431Z,89824
2017-05-14T07:55:05.617Z,89408
2017-05-14T07:56:00.263Z,54496
2017-05-14T07:56:54.781Z,85152
2017-05-14T07:57:48.346Z,47296
2017-05-14T07:58:42.296Z,78848
2017-05-14T07:59:37.776Z,75488
2017-05-14T08:00:36.803Z,83488
2017-05-14T08:01:30.837Z,81664
2017-05-14T08:02:19.798Z,78560
2017-05-14T08:03:13.289Z,64352
2017-05-14T08:04:02.332Z,68032
2017-05-14T08:04:56.222Z,82112
2017-05-14T08:05:44.854Z,78656
2017-05-14T08:06:38.417Z,71456
2017-05-14T08:07:32.396Z,74112
2017-05-14T08:08:32.358Z,74560
2017-05-14T08:09:21.356Z,69888
2017-05-14T08:10:14.892Z,73184
2017-05-14T08:11:03.855Z,72096
2017-05-14T08:11:52.425Z,72032
2017-05-14T08:12:39.907Z,58016
2017-05-14T08:13:28.927Z,81344
2017-05-14T08:14:17.513Z,86848
2017-05-14T08:15:06.030Z,89632
2017-05-14T08:16:05.786Z,69792
2017-05-14T08:16:54.546Z,54080
2017-05-14T08:17:48.118Z,69088
2017-05-14T08:18:48.082Z,87744
2017-05-14T08:19:37.085Z,71744
2017-05-14T08:20:30.622Z,60128
2017-05-14T08:21:18.614Z,52320
2017-05-14T08:22:06.609Z,54208
2017-05-14T08:23:00.547Z,55040
2017-05-14T08:23:55.546Z,52896
2017-05-14T08:24:49.071Z,56000
2017-05-14T08:25:43.044Z,55584
2017-05-14T08:26:31.303Z,60704
2017-05-14T08:27:30.999Z,41952
2017-05-14T08:28:24.991Z,41280
2017-05-14T08:29:18.955Z,42304
2017-05-14T08:30:13.936Z,59200
2017-05-14T08:31:08.515Z,80064
2017-05-14T08:32:08.058Z,61280
2017-05-14T08:32:57.039Z,69600
2017-05-14T08:33:50.529Z,88384
2017-05-14T08:34:39.589Z,84736
2017-05-14T08:35:28.107Z,56736
2017-05-14T08:36:16.627Z,53024
2017-05-14T08:37:16.197Z,52832
2017-05-14T08:38:05.195Z,42976
2017-05-14T08:38:58.684Z,51392
2017-05-14T08:39:46.698Z,54560
2017-05-14T08:40:41.731Z,60928
2017-05-14T08:41:34.863Z,47232
2017-05-14T08:42:29.941Z,53696
2017-05-14T08:43:29.546Z,48544
2017-05-14T08:44:23.583Z,43232
2017-05-14T08:45:17.740Z,50272
2017-05-14T08:46:11.727Z,47136
2017-05-14T08:47:00.671Z,56192
2017-05-14T08:47:54.520Z,40768
2017-05-14T08:48:54.177Z,44320
2017-05-14T08:49:48.168Z,42720
2017-05-14T08:50:37.108Z,41664
2017-05-14T08:51:31.690Z,36096
2017-05-14T08:52:19.246Z,36928
2017-05-14T08:53:20.275Z,40256
2017-05-14T08:54:19.732Z,38048
2017-05-14T08:55:08.729Z,63904
2017-05-14T08:56:03.216Z,53856
2017-05-14T08:56:56.800Z,79456
2017-05-14T08:57:50.740Z,76832
2017-05-14T08:58:39.726Z,72928
2017-05-14T08:59:28.317Z,70816
2017-05-14T09:00:21.896Z,71520
2017-05-14T09:01:21.825Z,73280
2017-05-14T09:02:16.872Z,73792
2017-05-14T09:03:11.446Z,72640
2017-05-14T09:04:04.925Z,70432
2017-05-14T09:04:58.875Z,69888
2017-05-14T09:05:59.837Z,71712
2017-05-14T09:06:53.391Z,72992
2017-05-14T09:07:42.398Z,74528
2017-05-14T09:08:35.871Z,74240
2017-05-14T09:09:35.938Z,74784
2017-05-14T09:10:18.927Z,72384
2017-05-14T09:11:12.469Z,69792
2017-05-14T09:12:06.447Z,67552
2017-05-14T09:12:54.380Z,67584
2017-05-14T09:13:48.361Z,68000
2017-05-14T09:14:42.322Z,68192
2017-05-14T09:15:31.395Z,36864
2017-05-14T09:16:19.797Z,32928
2017-05-14T09:17:14.039Z,36512
2017-05-14T09:18:02.989Z,64352
2017-05-14T09:18:57.479Z,69600
2017-05-14T09:19:51.259Z,69088
2017-05-14T09:20:45.846Z,68512
2017-05-14T09:21:39.629Z,70688
2017-05-14T09:22:34.113Z,74400
2017-05-14T09:23:28.139Z,72128
2017-05-14T09:24:17.051Z,67040
2017-05-14T09:25:16.354Z,26112
2017-05-14T09:26:04.564Z,79744
2017-05-14T09:27:04.594Z,25696
2017-05-14T09:27:59.412Z,81440
2017-05-14T09:28:54.132Z,80640
2017-05-14T09:29:41.721Z,76480
2017-05-14T09:30:41.786Z,74080
2017-05-14T09:31:29.498Z,71712
2017-05-14T09:32:18.636Z,71488
2017-05-14T09:33:12.135Z,71072
2017-05-14T09:34:01.175Z,72672
2017-05-14T09:35:00.743Z,72032
2017-05-14T09:35:54.734Z,73440
2017-05-14T09:36:48.574Z,73696
2017-05-14T09:37:36.606Z,75904
2017-05-14T09:38:24.567Z,77408
2017-05-14T09:39:12.667Z,78112
2017-05-14T09:40:06.328Z,80512
2017-05-14T09:41:06.484Z,82048
2017-05-14T09:41:54.313Z,86304
2017-05-14T09:42:43.341Z,89376
2017-05-14T09:43:38.041Z,88288
2017-05-14T09:44:31.664Z,75456
2017-05-14T09:45:31.628Z,83296
2017-05-14T09:46:26.615Z,79104
2017-05-14T09:47:21.168Z,83168
2017-05-14T09:48:14.757Z,83264
2017-05-14T09:49:03.607Z,89664
2017-05-14T09:50:03.263Z,86624
2017-05-14T09:50:57.281Z,86400
2017-05-14T09:51:57.297Z,65440
2017-05-14T09:52:46.172Z,71904
2017-05-14T09:53:45.755Z,90304
2017-05-14T09:54:39.728Z,92448
2017-05-14T09:55:34.342Z,79712
2017-05-14T09:56:29.245Z,32896
2017-05-14T09:57:22.762Z,29664
2017-05-14T09:58:11.595Z,30240
2017-05-14T09:59:00.350Z,87712
2017-05-14T09:59:53.912Z,91264
2017-05-14T10:00:36.884Z,89600
2017-05-14T10:01:42.400Z,64800
2017-05-14T10:02:37.393Z,37504
2017-05-14T10:03:25.983Z,37376
2017-05-14T10:04:19.518Z,88736
2017-05-14T10:05:08.482Z,106912
2017-05-14T10:06:02.045Z,68640
2017-05-14T10:07:02.024Z,54912
2017-05-14T10:07:51.100Z,104544
2017-05-14T10:08:45.532Z,67136
2017-05-14T10:09:39.076Z,33568
2017-05-14T10:10:33.117Z,31840
2017-05-14T10:11:21.043Z,30848
2017-05-14T10:12:16.017Z,29280
2017-05-14T10:13:15.572Z,27648
2017-05-14T10:14:10.594Z,25792
2017-05-14T10:15:10.064Z,25024
2017-05-14T10:16:04.009Z,25120
2017-05-14T10:16:53.113Z,24224
2017-05-14T10:17:46.504Z,22912
2017-05-14T10:18:40.538Z,21824
2017-05-14T10:19:29.427Z,20896
2017-05-14T10:20:24.090Z,19392
2017-05-14T10:21:23.337Z,17792
2017-05-14T10:22:11.549Z,17056
2017-05-14T10:23:00.551Z,16864
2017-05-14T10:23:49.242Z,17440
2017-05-14T10:24:37.545Z,18432
2017-05-14T10:25:32.192Z,19904
2017-05-14T10:26:26.731Z,21248
2017-05-14T10:27:21.236Z,23232
2017-05-14T10:28:14.515Z,27200
2017-05-14T10:29:14.369Z,34112
2017-05-14T10:30:08.634Z,80096
2017-05-14T10:30:56.676Z,78464
2017-05-14T10:31:44.523Z,23488
2017-05-14T10:32:39.562Z,23872
2017-05-14T10:33:33.798Z,49408
2017-05-14T10:34:28.627Z,38688
2017-05-14T10:35:22.253Z,105152
2017-05-14T10:36:16.381Z,29952
2017-05-14T10:37:04.234Z,28960
2017-05-14T10:38:04.051Z,35680
2017-05-14T10:38:51.844Z,61664
2017-05-14T10:39:41.213Z,26208
2017-05-14T10:40:34.475Z,29120
2017-05-14T10:41:29.520Z,27904
2017-05-14T10:42:17.850Z,30208
2017-05-14T10:43:05.776Z,37024
2017-05-14T10:43:59.809Z,71072
2017-05-14T10:44:48.647Z,101408
2017-05-14T10:45:47.782Z,35968
2017-05-14T10:46:41.849Z,39456
2017-05-14T10:47:35.767Z,28256
2017-05-14T10:48:30.751Z,100704
2017-05-14T10:49:25.518Z,36512
2017-05-14T10:50:19.851Z,55104
2017-05-14T10:51:19.675Z,71744
2017-05-14T10:52:13.363Z,60576
2017-05-14T10:53:07.349Z,95136
2017-05-14T10:53:56.795Z,30624
2017-05-14T10:54:55.947Z,30720
2017-05-14T10:55:45.515Z,32416
2017-05-14T10:56:32.878Z,35840
2017-05-14T10:57:21.796Z,46624
2017-05-14T10:58:16.372Z,47904
2017-05-14T10:59:10.829Z,87936
2017-05-14T11:00:04.385Z,37024
2017-05-14T11:00:58.397Z,35008
2017-05-14T11:01:53.388Z,32096
2017-05-14T11:02:46.912Z,31168
2017-05-14T11:03:35.919Z,30368
2017-05-14T11:04:35.474Z,30272
2017-05-14T11:05:24.437Z,31296
2017-05-14T11:06:12.911Z,33568
2017-05-14T11:07:06.518Z,45824
2017-05-14T11:07:54.472Z,95200
2017-05-14T11:08:48.442Z,40832
2017-05-14T11:09:42.373Z,40992
2017-05-14T11:10:31.397Z,38976
2017-05-14T11:11:24.990Z,35712
2017-05-14T11:12:12.894Z,32640
2017-05-14T11:13:06.850Z,34208
2017-05-14T11:14:00.838Z,32640
2017-05-14T11:14:49.877Z,34944
2017-05-14T11:15:44.469Z,37952
2017-05-14T11:16:37.955Z,81408
2017-05-14T11:17:31.882Z,104256
2017-05-14T11:18:20.832Z,104512
2017-05-14T11:19:14.465Z,103840
2017-05-14T11:20:02.445Z,97024
2017-05-14T11:20:50.471Z,94208
2017-05-14T11:21:39.402Z,90688
2017-05-14T11:22:38.992Z,69632
2017-05-14T11:23:32.946Z,54976
2017-05-14T11:24:26.775Z,58464
2017-05-14T11:25:15.828Z,67456
2017-05-14T11:26:04.473Z,63200
2017-05-14T11:26:58.116Z,65856
2017-05-14T11:27:40.976Z,37408
2017-05-14T11:28:34.446Z,62944
2017-05-14T11:29:28.283Z,66752
2017-05-14T11:30:22.433Z,61856
2017-05-14T11:31:22.441Z,37376
2017-05-14T11:32:10.439Z,96640
2017-05-14T11:33:04.285Z,100576
2017-05-14T11:33:58.416Z,95296
2017-05-14T11:34:46.364Z,96896
2017-05-14T11:35:46.486Z,82272
2017-05-14T11:36:40.353Z,82592
2017-05-14T11:37:40.349Z,90176
2017-05-14T11:38:23.256Z,32800
2017-05-14T11:39:17.793Z,34432
2017-05-14T11:40:12.368Z,96032
2017-05-14T11:41:00.952Z,98464
2017-05-14T11:41:49.482Z,84736
2017-05-14T11:42:43.007Z,92640
2017-05-14T11:43:31.051Z,83104
2017-05-14T11:44:14.025Z,81888
2017-05-14T11:45:07.522Z,82496
2017-05-14T11:46:01.500Z,91232
2017-05-14T11:46:50.533Z,93248
2017-05-14T11:47:38.049Z,91904
2017-05-14T11:48:26.042Z,86720
2017-05-14T11:49:26.009Z,85056
2017-05-14T11:50:20.965Z,80384
2017-05-14T11:51:14.528Z,29888
2017-05-14T11:52:03.551Z,29152
2017-05-14T11:52:52.077Z,28288
2017-05-14T11:53:46.660Z,26752
2017-05-14T11:54:40.176Z,25536
2017-05-14T11:55:23.180Z,24416
2017-05-14T11:56:10.742Z,23296
2017-05-14T11:57:10.656Z,21984
2017-05-14T11:58:04.657Z,20992
2017-05-14T11:58:59.509Z,19840
2017-05-14T11:59:54.003Z,18752
2017-05-14T12:00:48.604Z,17568
2017-05-14T12:01:36.799Z,16352
2017-05-14T12:02:31.690Z,14840
2017-05-14T12:03:30.914Z,13268
2017-05-14T12:04:18.828Z,11924
2017-05-14T12:05:12.882Z,10544
2017-05-14T12:06:06.910Z,9472